sensor_id;sensor_type;location;lat;lon;timestamp;P1;durP1;ratioP1;P2;durP2;ratioP2
5876;SDS011;2964;42.144;24.730;2023-10-31T00:01:52;19.73;;;12.67;;
5876;SDS011;2964;42.144;24.730;2023-10-31T00:04:20;20.03;;;11.83;;
5876;SDS011;2964;42.144;24.730;2023-10-31T00:06:47;22.37;;;13.00;;
5876;SDS011;2964;42.144;24.730;2023-10-31T00:09:13;17.10;;;12.43;;
5876;SDS011;2964;42.144;24.730;2023-10-31T00:11:41;21.37;;;13.10;;
5876;SDS011;2964;42.144;24.730;2023-10-31T00:14:08;19.83;;;12.50;;
5876;SDS011;2964;42.144;24.730;2023-10-31T00:16:34;19.50;;;12.50;;
5876;SDS011;2964;42.144;24.730;2023-10-31T00:19:03;21.93;;;13.07;;
5876;SDS011;2964;42.144;24.730;2023-10-31T00:21:29;25.60;;;12.17;;
5876;SDS011;2964;42.144;24.730;2023-10-31T00:23:56;20.87;;;12.13;;
5876;SDS011;2964;42.144;24.730;2023-10-31T00:26:23;21.10;;;11.43;;
5876;SDS011;2964;42.144;24.730;2023-10-31T00:28:50;20.93;;;12.13;;
5876;SDS011;2964;42.144;24.730;2023-10-31T00:31:16;15.87;;;11.03;;
5876;SDS011;2964;42.144;24.730;2023-10-31T00:33:43;16.07;;;11.47;;
5876;SDS011;2964;42.144;24.730;2023-10-31T00:36:10;14.23;;;10.80;;
5876;SDS011;2964;42.144;24.730;2023-10-31T00:38:37;12.00;;;10.80;;
5876;SDS011;2964;42.144;24.730;2023-10-31T00:41:03;10.87;;;9.83;;
5876;SDS011;2964;42.144;24.730;2023-10-31T00:43:30;22.63;;;11.00;;
5876;SDS011;2964;42.144;24.730;2023-10-31T00:45:57;14.47;;;10.87;;
5876;SDS011;2964;42.144;24.730;2023-10-31T00:48:23;13.23;;;11.13;;
5876;SDS011;2964;42.144;24.730;2023-10-31T00:50:50;15.27;;;11.50;;
5876;SDS011;2964;42.144;24.730;2023-10-31T00:53:18;14.33;;;11.00;;
5876;SDS011;2964;42.144;24.730;2023-10-31T00:55:45;12.97;;;10.33;;
5876;SDS011;2964;42.144;24.730;2023-10-31T00:58:11;16.70;;;10.60;;
5876;SDS011;2964;42.144;24.730;2023-10-31T01:00:38;12.27;;;10.63;;
5876;SDS011;2964;42.144;24.730;2023-10-31T01:03:05;16.80;;;10.47;;
5876;SDS011;2964;42.144;24.730;2023-10-31T01:05:32;13.80;;;10.53;;
5876;SDS011;2964;42.144;24.730;2023-10-31T01:07:58;13.40;;;10.73;;
5876;SDS011;2964;42.144;24.730;2023-10-31T01:10:26;12.60;;;9.50;;
5876;SDS011;2964;42.144;24.730;2023-10-31T01:12:53;13.50;;;11.10;;
5876;SDS011;2964;42.144;24.730;2023-10-31T01:15:20;13.17;;;10.27;;
5876;SDS011;2964;42.144;24.730;2023-10-31T01:17:47;15.93;;;11.33;;
5876;SDS011;2964;42.144;24.730;2023-10-31T01:20:13;14.13;;;10.27;;
5876;SDS011;2964;42.144;24.730;2023-10-31T01:22:40;11.43;;;9.93;;
5876;SDS011;2964;42.144;24.730;2023-10-31T01:25:07;16.17;;;10.47;;
5876;SDS011;2964;42.144;24.730;2023-10-31T01:27:37;13.50;;;10.60;;
5876;SDS011;2964;42.144;24.730;2023-10-31T01:30:04;14.10;;;11.03;;
5876;SDS011;2964;42.144;24.730;2023-10-31T01:32:31;12.77;;;10.73;;
5876;SDS011;2964;42.144;24.730;2023-10-31T01:34:57;12.93;;;10.53;;
5876;SDS011;2964;42.144;24.730;2023-10-31T01:37:24;14.70;;;10.90;;
5876;SDS011;2964;42.144;24.730;2023-10-31T01:39:51;14.03;;;10.63;;
5876;SDS011;2964;42.144;24.730;2023-10-31T01:42:18;18.10;;;11.07;;
5876;SDS011;2964;42.144;24.730;2023-10-31T01:44:46;12.50;;;10.90;;
5876;SDS011;2964;42.144;24.730;2023-10-31T01:47:13;25.37;;;11.97;;
5876;SDS011;2964;42.144;24.730;2023-10-31T01:49:40;17.90;;;11.83;;
5876;SDS011;2964;42.144;24.730;2023-10-31T01:52:07;17.93;;;11.80;;
5876;SDS011;2964;42.144;24.730;2023-10-31T01:54:34;15.03;;;12.23;;
5876;SDS011;2964;42.144;24.730;2023-10-31T01:57:01;14.60;;;11.77;;
5876;SDS011;2964;42.144;24.730;2023-10-31T01:59:30;13.77;;;10.87;;
5876;SDS011;2964;42.144;24.730;2023-10-31T02:01:58;13.63;;;12.13;;
5876;SDS011;2964;42.144;24.730;2023-10-31T02:04:27;19.37;;;11.87;;
5876;SDS011;2964;42.144;24.730;2023-10-31T02:06:54;15.10;;;12.47;;
5876;SDS011;2964;42.144;24.730;2023-10-31T02:09:20;13.90;;;11.30;;
5876;SDS011;2964;42.144;24.730;2023-10-31T02:11:49;12.60;;;11.30;;
5876;SDS011;2964;42.144;24.730;2023-10-31T02:14:16;16.07;;;12.00;;
5876;SDS011;2964;42.144;24.730;2023-10-31T02:16:43;18.53;;;12.47;;
5876;SDS011;2964;42.144;24.730;2023-10-31T02:19:11;17.70;;;13.23;;
5876;SDS011;2964;42.144;24.730;2023-10-31T02:21:45;16.50;;;11.93;;
5876;SDS011;2964;42.144;24.730;2023-10-31T02:24:11;14.27;;;11.90;;
5876;SDS011;2964;42.144;24.730;2023-10-31T02:26:38;13.90;;;12.47;;
5876;SDS011;2964;42.144;24.730;2023-10-31T02:29:05;15.47;;;12.23;;
5876;SDS011;2964;42.144;24.730;2023-10-31T02:31:32;16.70;;;11.63;;
5876;SDS011;2964;42.144;24.730;2023-10-31T02:33:58;18.60;;;12.40;;
5876;SDS011;2964;42.144;24.730;2023-10-31T02:36:25;14.83;;;12.30;;
5876;SDS011;2964;42.144;24.730;2023-10-31T02:38:53;19.03;;;11.73;;
5876;SDS011;2964;42.144;24.730;2023-10-31T02:41:20;16.93;;;12.60;;
5876;SDS011;2964;42.144;24.730;2023-10-31T02:43:47;16.47;;;11.77;;
5876;SDS011;2964;42.144;24.730;2023-10-31T02:46:13;14.20;;;12.37;;
5876;SDS011;2964;42.144;24.730;2023-10-31T02:48:41;21.63;;;13.60;;
5876;SDS011;2964;42.144;24.730;2023-10-31T02:51:07;16.83;;;12.47;;
5876;SDS011;2964;42.144;24.730;2023-10-31T02:53:34;15.27;;;12.30;;
5876;SDS011;2964;42.144;24.730;2023-10-31T02:56:03;15.33;;;12.57;;
5876;SDS011;2964;42.144;24.730;2023-10-31T02:58:30;18.40;;;12.57;;
5876;SDS011;2964;42.144;24.730;2023-10-31T03:00:57;17.87;;;12.10;;
5876;SDS011;2964;42.144;24.730;2023-10-31T03:03:23;15.23;;;11.90;;
5876;SDS011;2964;42.144;24.730;2023-10-31T03:05:50;18.23;;;12.03;;
5876;SDS011;2964;42.144;24.730;2023-10-31T03:08:17;16.10;;;11.73;;
5876;SDS011;2964;42.144;24.730;2023-10-31T03:10:46;19.97;;;12.37;;
5876;SDS011;2964;42.144;24.730;2023-10-31T03:13:16;16.33;;;12.07;;
5876;SDS011;2964;42.144;24.730;2023-10-31T03:15:43;14.87;;;12.10;;
5876;SDS011;2964;42.144;24.730;2023-10-31T03:18:10;13.77;;;12.23;;
5876;SDS011;2964;42.144;24.730;2023-10-31T03:20:37;15.37;;;12.87;;
5876;SDS011;2964;42.144;24.730;2023-10-31T03:23:03;15.50;;;12.27;;
5876;SDS011;2964;42.144;24.730;2023-10-31T03:25:30;21.17;;;13.33;;
5876;SDS011;2964;42.144;24.730;2023-10-31T03:27:57;20.50;;;12.90;;
5876;SDS011;2964;42.144;24.730;2023-10-31T03:30:25;21.10;;;12.87;;
5876;SDS011;2964;42.144;24.730;2023-10-31T03:32:51;19.60;;;12.53;;
5876;SDS011;2964;42.144;24.730;2023-10-31T03:35:18;15.13;;;13.37;;
5876;SDS011;2964;42.144;24.730;2023-10-31T03:37:45;17.53;;;12.50;;
5876;SDS011;2964;42.144;24.730;2023-10-31T03:40:12;18.23;;;13.13;;
5876;SDS011;2964;42.144;24.730;2023-10-31T03:42:38;21.13;;;14.47;;
5876;SDS011;2964;42.144;24.730;2023-10-31T03:45:06;19.43;;;14.03;;
5876;SDS011;2964;42.144;24.730;2023-10-31T03:47:34;21.63;;;13.43;;
5876;SDS011;2964;42.144;24.730;2023-10-31T03:50:01;18.87;;;13.33;;
5876;SDS011;2964;42.144;24.730;2023-10-31T03:52:28;18.37;;;13.97;;
5876;SDS011;2964;42.144;24.730;2023-10-31T03:54:55;18.93;;;13.60;;
5876;SDS011;2964;42.144;24.730;2023-10-31T03:57:21;22.10;;;13.83;;
5876;SDS011;2964;42.144;24.730;2023-10-31T03:59:48;13.87;;;12.43;;
5876;SDS011;2964;42.144;24.730;2023-10-31T04:02:15;16.27;;;12.73;;
5876;SDS011;2964;42.144;24.730;2023-10-31T04:04:43;19.53;;;12.33;;
5876;SDS011;2964;42.144;24.730;2023-10-31T04:07:09;18.80;;;13.70;;
5876;SDS011;2964;42.144;24.730;2023-10-31T04:09:36;16.20;;;13.13;;
5876;SDS011;2964;42.144;24.730;2023-10-31T04:12:03;14.47;;;12.03;;
5876;SDS011;2964;42.144;24.730;2023-10-31T04:14:30;16.73;;;13.30;;
5876;SDS011;2964;42.144;24.730;2023-10-31T04:16:57;15.57;;;13.97;;
5876;SDS011;2964;42.144;24.730;2023-10-31T04:19:23;21.87;;;13.13;;
5876;SDS011;2964;42.144;24.730;2023-10-31T04:21:52;15.37;;;13.10;;
5876;SDS011;2964;42.144;24.730;2023-10-31T04:24:20;17.00;;;13.07;;
5876;SDS011;2964;42.144;24.730;2023-10-31T04:26:46;16.37;;;13.63;;
5876;SDS011;2964;42.144;24.730;2023-10-31T04:29:13;21.20;;;14.10;;
5876;SDS011;2964;42.144;24.730;2023-10-31T04:31:40;18.57;;;14.13;;
5876;SDS011;2964;42.144;24.730;2023-10-31T04:34:07;29.87;;;14.90;;
5876;SDS011;2964;42.144;24.730;2023-10-31T04:36:34;25.27;;;14.53;;
5876;SDS011;2964;42.144;24.730;2023-10-31T04:39:02;24.07;;;15.07;;
5876;SDS011;2964;42.144;24.730;2023-10-31T04:41:29;25.20;;;14.93;;
5876;SDS011;2964;42.144;24.730;2023-10-31T04:43:56;20.17;;;14.97;;
5876;SDS011;2964;42.144;24.730;2023-10-31T04:46:24;20.53;;;14.80;;
5876;SDS011;2964;42.144;24.730;2023-10-31T04:48:52;18.60;;;14.60;;
5876;SDS011;2964;42.144;24.730;2023-10-31T04:51:18;20.03;;;15.40;;
5876;SDS011;2964;42.144;24.730;2023-10-31T04:53:45;19.53;;;14.57;;
5876;SDS011;2964;42.144;24.730;2023-10-31T04:56:14;20.57;;;16.00;;
5876;SDS011;2964;42.144;24.730;2023-10-31T04:58:41;20.00;;;15.27;;
5876;SDS011;2964;42.144;24.730;2023-10-31T05:01:08;19.13;;;15.87;;
5876;SDS011;2964;42.144;24.730;2023-10-31T05:03:36;17.93;;;14.70;;
5876;SDS011;2964;42.144;24.730;2023-10-31T05:06:03;17.47;;;15.60;;
5876;SDS011;2964;42.144;24.730;2023-10-31T05:08:30;21.30;;;15.03;;
5876;SDS011;2964;42.144;24.730;2023-10-31T05:10:57;32.70;;;16.13;;
5876;SDS011;2964;42.144;24.730;2023-10-31T05:13:25;17.00;;;15.17;;
5876;SDS011;2964;42.144;24.730;2023-10-31T05:15:52;25.00;;;16.03;;
5876;SDS011;2964;42.144;24.730;2023-10-31T05:18:18;29.83;;;16.17;;
5876;SDS011;2964;42.144;24.730;2023-10-31T05:20:45;25.07;;;15.53;;
5876;SDS011;2964;42.144;24.730;2023-10-31T05:23:12;20.53;;;15.90;;
5876;SDS011;2964;42.144;24.730;2023-10-31T05:25:38;22.50;;;15.27;;
5876;SDS011;2964;42.144;24.730;2023-10-31T05:28:05;23.83;;;16.13;;
5876;SDS011;2964;42.144;24.730;2023-10-31T05:30:33;24.60;;;14.93;;
5876;SDS011;2964;42.144;24.730;2023-10-31T05:33:00;21.33;;;14.27;;
5876;SDS011;2964;42.144;24.730;2023-10-31T05:35:27;25.90;;;15.87;;
5876;SDS011;2964;42.144;24.730;2023-10-31T05:37:53;20.77;;;15.10;;
5876;SDS011;2964;42.144;24.730;2023-10-31T05:40:20;17.47;;;14.70;;
5876;SDS011;2964;42.144;24.730;2023-10-31T05:42:49;17.53;;;14.13;;
5876;SDS011;2964;42.144;24.730;2023-10-31T05:45:16;28.47;;;15.63;;
5876;SDS011;2964;42.144;24.730;2023-10-31T05:47:44;20.17;;;14.50;;
5876;SDS011;2964;42.144;24.730;2023-10-31T05:50:11;25.13;;;14.67;;
5876;SDS011;2964;42.144;24.730;2023-10-31T05:52:38;19.20;;;13.67;;
5876;SDS011;2964;42.144;24.730;2023-10-31T05:55:05;16.47;;;13.23;;
5876;SDS011;2964;42.144;24.730;2023-10-31T05:57:32;17.83;;;13.47;;
5876;SDS011;2964;42.144;24.730;2023-10-31T05:59:59;18.90;;;13.40;;
5876;SDS011;2964;42.144;24.730;2023-10-31T06:02:26;18.03;;;14.20;;
5876;SDS011;2964;42.144;24.730;2023-10-31T06:04:55;22.20;;;13.13;;
5876;SDS011;2964;42.144;24.730;2023-10-31T06:07:22;18.17;;;14.20;;
5876;SDS011;2964;42.144;24.730;2023-10-31T06:09:48;15.50;;;13.10;;
5876;SDS011;2964;42.144;24.730;2023-10-31T06:12:15;14.37;;;12.87;;
5876;SDS011;2964;42.144;24.730;2023-10-31T06:14:42;16.57;;;12.97;;
5876;SDS011;2964;42.144;24.730;2023-10-31T06:17:09;14.73;;;13.17;;
5876;SDS011;2964;42.144;24.730;2023-10-31T06:19:35;22.83;;;13.13;;
5876;SDS011;2964;42.144;24.730;2023-10-31T06:22:04;17.27;;;12.90;;
5876;SDS011;2964;42.144;24.730;2023-10-31T06:24:30;14.90;;;13.33;;
5876;SDS011;2964;42.144;24.730;2023-10-31T06:26:57;20.27;;;13.83;;
5876;SDS011;2964;42.144;24.730;2023-10-31T06:29:24;16.03;;;12.53;;
5876;SDS011;2964;42.144;24.730;2023-10-31T06:31:50;17.97;;;12.37;;
5876;SDS011;2964;42.144;24.730;2023-10-31T06:34:17;20.87;;;13.77;;
5876;SDS011;2964;42.144;24.730;2023-10-31T06:36:44;21.47;;;13.80;;
5876;SDS011;2964;42.144;24.730;2023-10-31T06:39:12;20.40;;;13.17;;
5876;SDS011;2964;42.144;24.730;2023-10-31T06:41:38;15.70;;;13.27;;
5876;SDS011;2964;42.144;24.730;2023-10-31T06:44:05;22.23;;;12.60;;
5876;SDS011;2964;42.144;24.730;2023-10-31T06:46:32;15.23;;;12.90;;
5876;SDS011;2964;42.144;24.730;2023-10-31T06:48:59;38.47;;;14.07;;
5876;SDS011;2964;42.144;24.730;2023-10-31T06:51:25;28.90;;;13.90;;
5876;SDS011;2964;42.144;24.730;2023-10-31T06:53:52;15.27;;;12.33;;
5876;SDS011;2964;42.144;24.730;2023-10-31T06:56:20;29.70;;;14.23;;
5876;SDS011;2964;42.144;24.730;2023-10-31T06:58:47;18.10;;;12.57;;
5876;SDS011;2964;42.144;24.730;2023-10-31T07:01:14;24.93;;;12.63;;
5876;SDS011;2964;42.144;24.730;2023-10-31T07:03:43;21.70;;;12.57;;
5876;SDS011;2964;42.144;24.730;2023-10-31T07:06:10;21.07;;;12.07;;
5876;SDS011;2964;42.144;24.730;2023-10-31T07:08:35;16.97;;;12.60;;
5876;SDS011;2964;42.144;24.730;2023-10-31T07:11:02;35.60;;;12.90;;
5876;SDS011;2964;42.144;24.730;2023-10-31T07:13:31;18.53;;;12.60;;
5876;SDS011;2964;42.144;24.730;2023-10-31T07:15:57;30.00;;;13.13;;
5876;SDS011;2964;42.144;24.730;2023-10-31T07:18:24;13.83;;;12.50;;
5876;SDS011;2964;42.144;24.730;2023-10-31T07:20:51;27.27;;;12.83;;
5876;SDS011;2964;42.144;24.730;2023-10-31T07:23:17;16.40;;;12.60;;
5876;SDS011;2964;42.144;24.730;2023-10-31T07:25:44;26.33;;;14.17;;
5876;SDS011;2964;42.144;24.730;2023-10-31T07:28:11;21.40;;;13.93;;
5876;SDS011;2964;42.144;24.730;2023-10-31T07:30:39;22.70;;;13.10;;
5876;SDS011;2964;42.144;24.730;2023-10-31T07:33:06;19.93;;;13.03;;
5876;SDS011;2964;42.144;24.730;2023-10-31T07:35:33;21.77;;;13.13;;
5876;SDS011;2964;42.144;24.730;2023-10-31T07:37:59;16.77;;;13.37;;
5876;SDS011;2964;42.144;24.730;2023-10-31T07:40:26;22.27;;;12.53;;
5876;SDS011;2964;42.144;24.730;2023-10-31T07:42:53;29.57;;;11.93;;
5876;SDS011;2964;42.144;24.730;2023-10-31T07:45:19;15.97;;;11.83;;
5876;SDS011;2964;42.144;24.730;2023-10-31T07:47:47;21.43;;;11.47;;
5876;SDS011;2964;42.144;24.730;2023-10-31T07:50:14;20.47;;;11.60;;
5876;SDS011;2964;42.144;24.730;2023-10-31T07:52:41;22.63;;;12.30;;
5876;SDS011;2964;42.144;24.730;2023-10-31T07:55:08;17.30;;;11.53;;
5876;SDS011;2964;42.144;24.730;2023-10-31T07:57:36;25.70;;;12.30;;
5876;SDS011;2964;42.144;24.730;2023-10-31T08:00:03;12.80;;;10.43;;
5876;SDS011;2964;42.144;24.730;2023-10-31T08:02:31;17.00;;;12.73;;
5876;SDS011;2964;42.144;24.730;2023-10-31T08:04:59;15.27;;;11.43;;
5876;SDS011;2964;42.144;24.730;2023-10-31T08:07:26;17.23;;;11.40;;
5876;SDS011;2964;42.144;24.730;2023-10-31T08:09:55;15.83;;;11.50;;
5876;SDS011;2964;42.144;24.730;2023-10-31T08:12:21;19.43;;;10.90;;
5876;SDS011;2964;42.144;24.730;2023-10-31T08:14:48;13.53;;;11.37;;
5876;SDS011;2964;42.144;24.730;2023-10-31T08:17:15;24.40;;;11.63;;
5876;SDS011;2964;42.144;24.730;2023-10-31T08:19:42;17.50;;;10.43;;
5876;SDS011;2964;42.144;24.730;2023-10-31T08:22:10;23.10;;;10.97;;
5876;SDS011;2964;42.144;24.730;2023-10-31T08:24:36;17.73;;;11.13;;
5876;SDS011;2964;42.144;24.730;2023-10-31T08:27:04;12.93;;;10.53;;
5876;SDS011;2964;42.144;24.730;2023-10-31T08:29:32;14.67;;;11.13;;
5876;SDS011;2964;42.144;24.730;2023-10-31T08:31:59;10.87;;;9.80;;
5876;SDS011;2964;42.144;24.730;2023-10-31T08:34:25;12.93;;;9.60;;
5876;SDS011;2964;42.144;24.730;2023-10-31T08:36:52;14.23;;;10.47;;
5876;SDS011;2964;42.144;24.730;2023-10-31T08:39:22;22.43;;;9.83;;
5876;SDS011;2964;42.144;24.730;2023-10-31T08:41:50;22.97;;;11.27;;
5876;SDS011;2964;42.144;24.730;2023-10-31T08:44:17;13.97;;;10.13;;
5876;SDS011;2964;42.144;24.730;2023-10-31T08:46:44;13.80;;;10.27;;
5876;SDS011;2964;42.144;24.730;2023-10-31T08:49:10;16.70;;;9.50;;
5876;SDS011;2964;42.144;24.730;2023-10-31T08:51:38;10.67;;;8.77;;
5876;SDS011;2964;42.144;24.730;2023-10-31T08:54:05;21.93;;;9.50;;
5876;SDS011;2964;42.144;24.730;2023-10-31T08:56:33;16.70;;;9.80;;
5876;SDS011;2964;42.144;24.730;2023-10-31T08:59:00;18.57;;;9.13;;
5876;SDS011;2964;42.144;24.730;2023-10-31T09:01:27;19.17;;;8.77;;
5876;SDS011;2964;42.144;24.730;2023-10-31T09:03:54;28.03;;;10.47;;
5876;SDS011;2964;42.144;24.730;2023-10-31T09:06:23;22.80;;;10.33;;
5876;SDS011;2964;42.144;24.730;2023-10-31T09:08:50;18.33;;;8.75;;
5876;SDS011;2964;42.144;24.730;2023-10-31T09:11:16;12.18;;;8.30;;
5876;SDS011;2964;42.144;24.730;2023-10-31T09:13:44;15.10;;;8.32;;
5876;SDS011;2964;42.144;24.730;2023-10-31T09:16:11;17.50;;;8.55;;
5876;SDS011;2964;42.144;24.730;2023-10-31T09:18:38;13.65;;;8.30;;
5876;SDS011;2964;42.144;24.730;2023-10-31T09:21:05;16.00;;;7.50;;
5876;SDS011;2964;42.144;24.730;2023-10-31T09:23:32;11.63;;;9.10;;
5876;SDS011;2964;42.144;24.730;2023-10-31T09:25:59;9.27;;;8.38;;
5876;SDS011;2964;42.144;24.730;2023-10-31T09:28:25;13.45;;;8.73;;
5876;SDS011;2964;42.144;24.730;2023-10-31T09:30:53;14.23;;;8.45;;
5876;SDS011;2964;42.144;24.730;2023-10-31T09:33:20;13.93;;;8.18;;
5876;SDS011;2964;42.144;24.730;2023-10-31T09:35:47;23.20;;;7.75;;
5876;SDS011;2964;42.144;24.730;2023-10-31T09:38:14;9.88;;;8.35;;
5876;SDS011;2964;42.144;24.730;2023-10-31T09:40:41;10.50;;;7.90;;
5876;SDS011;2964;42.144;24.730;2023-10-31T09:43:07;10.23;;;7.93;;
5876;SDS011;2964;42.144;24.730;2023-10-31T09:45:34;17.33;;;8.40;;
5876;SDS011;2964;42.144;24.730;2023-10-31T09:48:03;8.98;;;8.13;;
5876;SDS011;2964;42.144;24.730;2023-10-31T09:50:30;8.77;;;7.97;;
5876;SDS011;2964;42.144;24.730;2023-10-31T09:52:57;8.88;;;8.07;;
5876;SDS011;2964;42.144;24.730;2023-10-31T09:55:25;8.45;;;7.45;;
5876;SDS011;2964;42.144;24.730;2023-10-31T09:57:52;13.45;;;8.75;;
5876;SDS011;2964;42.144;24.730;2023-10-31T10:00:20;9.32;;;7.43;;
5876;SDS011;2964;42.144;24.730;2023-10-31T10:02:46;12.20;;;7.40;;
5876;SDS011;2964;42.144;24.730;2023-10-31T10:05:16;9.98;;;6.80;;
5876;SDS011;2964;42.144;24.730;2023-10-31T10:07:43;15.70;;;8.48;;
5876;SDS011;2964;42.144;24.730;2023-10-31T10:10:10;11.07;;;8.43;;
5876;SDS011;2964;42.144;24.730;2023-10-31T10:12:37;14.30;;;8.75;;
5876;SDS011;2964;42.144;24.730;2023-10-31T10:15:04;13.40;;;8.98;;
5876;SDS011;2964;42.144;24.730;2023-10-31T10:17:31;15.25;;;9.60;;
5876;SDS011;2964;42.144;24.730;2023-10-31T10:20:05;12.67;;;9.40;;
5876;SDS011;2964;42.144;24.730;2023-10-31T10:22:36;11.20;;;8.87;;
5876;SDS011;2964;42.144;24.730;2023-10-31T10:25:04;13.10;;;9.50;;
5876;SDS011;2964;42.144;24.730;2023-10-31T10:27:32;13.30;;;9.30;;
5876;SDS011;2964;42.144;24.730;2023-10-31T10:29:59;13.80;;;8.40;;
5876;SDS011;2964;42.144;24.730;2023-10-31T10:32:25;13.20;;;8.10;;
5876;SDS011;2964;42.144;24.730;2023-10-31T10:34:52;13.53;;;8.37;;
5876;SDS011;2964;42.144;24.730;2023-10-31T10:37:20;12.77;;;8.27;;
5876;SDS011;2964;42.144;24.730;2023-10-31T10:39:50;11.63;;;7.87;;
5876;SDS011;2964;42.144;24.730;2023-10-31T10:42:21;7.90;;;7.10;;
5876;SDS011;2964;42.144;24.730;2023-10-31T10:45:01;9.30;;;8.13;;
5876;SDS011;2964;42.144;24.730;2023-10-31T10:47:29;10.27;;;8.17;;
5876;SDS011;2964;42.144;24.730;2023-10-31T10:49:58;14.27;;;8.30;;
5876;SDS011;2964;42.144;24.730;2023-10-31T10:52:27;15.53;;;8.23;;
5876;SDS011;2964;42.144;24.730;2023-10-31T10:55:00;10.47;;;7.73;;
5876;SDS011;2964;42.144;24.730;2023-10-31T10:57:35;9.17;;;8.10;;
5876;SDS011;2964;42.144;24.730;2023-10-31T11:00:05;10.73;;;7.50;;
5876;SDS011;2964;42.144;24.730;2023-10-31T11:02:38;10.03;;;8.37;;
5876;SDS011;2964;42.144;24.730;2023-10-31T11:05:07;9.33;;;7.77;;
5876;SDS011;2964;42.144;24.730;2023-10-31T11:07:35;13.27;;;8.10;;
5876;SDS011;2964;42.144;24.730;2023-10-31T11:10:05;16.60;;;7.67;;
5876;SDS011;2964;42.144;24.730;2023-10-31T11:12:32;10.53;;;8.13;;
5876;SDS011;2964;42.144;24.730;2023-10-31T11:15:00;12.33;;;7.60;;
5876;SDS011;2964;42.144;24.730;2023-10-31T11:17:28;9.90;;;8.27;;
5876;SDS011;2964;42.144;24.730;2023-10-31T11:19:57;12.00;;;7.83;;
5876;SDS011;2964;42.144;24.730;2023-10-31T11:22:25;8.77;;;7.87;;
5876;SDS011;2964;42.144;24.730;2023-10-31T11:24:51;10.53;;;7.67;;
5876;SDS011;2964;42.144;24.730;2023-10-31T11:27:19;9.87;;;7.17;;
5876;SDS011;2964;42.144;24.730;2023-10-31T11:29:46;15.33;;;7.33;;
5876;SDS011;2964;42.144;24.730;2023-10-31T11:32:14;14.50;;;7.97;;
5876;SDS011;2964;42.144;24.730;2023-10-31T11:34:41;10.40;;;7.80;;
5876;SDS011;2964;42.144;24.730;2023-10-31T11:37:18;9.53;;;7.47;;
5876;SDS011;2964;42.144;24.730;2023-10-31T11:42:50;8.60;;;7.67;;
5876;SDS011;2964;42.144;24.730;2023-10-31T11:45:26;9.07;;;6.47;;
5876;SDS011;2964;42.144;24.730;2023-10-31T11:47:54;11.33;;;7.57;;
5876;SDS011;2964;42.144;24.730;2023-10-31T11:50:21;12.17;;;7.87;;
5876;SDS011;2964;42.144;24.730;2023-10-31T11:53:02;18.03;;;7.50;;
5876;SDS011;2964;42.144;24.730;2023-10-31T11:55:31;12.53;;;7.93;;
5876;SDS011;2964;42.144;24.730;2023-10-31T11:58:12;8.47;;;6.90;;
5876;SDS011;2964;42.144;24.730;2023-10-31T12:00:43;8.80;;;7.23;;
5876;SDS011;2964;42.144;24.730;2023-10-31T12:03:11;11.63;;;8.70;;
5876;SDS011;2964;42.144;24.730;2023-10-31T12:05:38;11.30;;;7.37;;
5876;SDS011;2964;42.144;24.730;2023-10-31T12:08:04;9.80;;;7.67;;
5876;SDS011;2964;42.144;24.730;2023-10-31T12:10:31;9.90;;;7.50;;
5876;SDS011;2964;42.144;24.730;2023-10-31T12:12:58;8.73;;;7.70;;
5876;SDS011;2964;42.144;24.730;2023-10-31T12:15:26;9.50;;;8.43;;
5876;SDS011;2964;42.144;24.730;2023-10-31T12:17:57;11.03;;;8.33;;
5876;SDS011;2964;42.144;24.730;2023-10-31T12:20:25;10.80;;;8.00;;
5876;SDS011;2964;42.144;24.730;2023-10-31T12:23:01;8.30;;;7.20;;
5876;SDS011;2964;42.144;24.730;2023-10-31T12:25:28;15.73;;;8.20;;
5876;SDS011;2964;42.144;24.730;2023-10-31T12:27:58;12.80;;;9.57;;
5876;SDS011;2964;42.144;24.730;2023-10-31T12:30:24;14.00;;;8.97;;
5876;SDS011;2964;42.144;24.730;2023-10-31T12:32:54;12.00;;;9.37;;
5876;SDS011;2964;42.144;24.730;2023-10-31T12:35:23;12.70;;;9.77;;
5876;SDS011;2964;42.144;24.730;2023-10-31T12:37:51;11.43;;;9.33;;
5876;SDS011;2964;42.144;24.730;2023-10-31T12:40:20;9.67;;;8.33;;
5876;SDS011;2964;42.144;24.730;2023-10-31T12:42:48;15.13;;;8.90;;
5876;SDS011;2964;42.144;24.730;2023-10-31T12:45:16;15.13;;;9.33;;
5876;SDS011;2964;42.144;24.730;2023-10-31T12:47:44;17.00;;;11.23;;
5876;SDS011;2964;42.144;24.730;2023-10-31T12:50:13;14.80;;;10.00;;
5876;SDS011;2964;42.144;24.730;2023-10-31T12:52:47;16.07;;;10.77;;
5876;SDS011;2964;42.144;24.730;2023-10-31T12:55:16;16.27;;;10.77;;
5876;SDS011;2964;42.144;24.730;2023-10-31T12:57:44;12.23;;;10.13;;
5876;SDS011;2964;42.144;24.730;2023-10-31T13:00:12;9.47;;;8.10;;
5876;SDS011;2964;42.144;24.730;2023-10-31T13:02:40;10.73;;;9.60;;
5876;SDS011;2964;42.144;24.730;2023-10-31T13:05:10;8.73;;;8.00;;
5876;SDS011;2964;42.144;24.730;2023-10-31T13:07:40;11.47;;;8.20;;
5876;SDS011;2964;42.144;24.730;2023-10-31T13:10:15;13.60;;;8.27;;
5876;SDS011;2964;42.144;24.730;2023-10-31T13:12:43;21.57;;;8.33;;
5876;SDS011;2964;42.144;24.730;2023-10-31T13:15:11;12.10;;;7.17;;
5876;SDS011;2964;42.144;24.730;2023-10-31T13:17:38;13.37;;;8.13;;
5876;SDS011;2964;42.144;24.730;2023-10-31T13:20:07;13.17;;;7.10;;
5876;SDS011;2964;42.144;24.730;2023-10-31T13:22:35;9.33;;;7.47;;
5876;SDS011;2964;42.144;24.730;2023-10-31T13:25:04;11.13;;;8.10;;
5876;SDS011;2964;42.144;24.730;2023-10-31T13:27:33;11.87;;;8.50;;
5876;SDS011;2964;42.144;24.730;2023-10-31T13:30:01;10.20;;;9.20;;
5876;SDS011;2964;42.144;24.730;2023-10-31T13:32:28;12.60;;;9.80;;
5876;SDS011;2964;42.144;24.730;2023-10-31T13:34:55;18.40;;;9.60;;
5876;SDS011;2964;42.144;24.730;2023-10-31T13:37:22;14.83;;;8.43;;
5876;SDS011;2964;42.144;24.730;2023-10-31T13:39:49;15.07;;;10.47;;
5876;SDS011;2964;42.144;24.730;2023-10-31T13:42:17;11.93;;;10.10;;
5876;SDS011;2964;42.144;24.730;2023-10-31T13:44:44;13.57;;;9.93;;
5876;SDS011;2964;42.144;24.730;2023-10-31T13:47:10;13.07;;;9.60;;
5876;SDS011;2964;42.144;24.730;2023-10-31T13:49:36;14.20;;;9.93;;
5876;SDS011;2964;42.144;24.730;2023-10-31T13:52:03;13.27;;;9.77;;
5876;SDS011;2964;42.144;24.730;2023-10-31T13:54:31;16.33;;;10.67;;
5876;SDS011;2964;42.144;24.730;2023-10-31T13:56:57;14.07;;;9.07;;
5876;SDS011;2964;42.144;24.730;2023-10-31T13:59:26;10.50;;;9.17;;
5876;SDS011;2964;42.144;24.730;2023-10-31T14:01:53;13.17;;;8.87;;
5876;SDS011;2964;42.144;24.730;2023-10-31T14:04:19;10.93;;;8.90;;
5876;SDS011;2964;42.144;24.730;2023-10-31T14:06:46;10.50;;;9.43;;
5876;SDS011;2964;42.144;24.730;2023-10-31T14:09:13;11.67;;;8.10;;
5876;SDS011;2964;42.144;24.730;2023-10-31T14:11:40;18.10;;;8.40;;
5876;SDS011;2964;42.144;24.730;2023-10-31T14:14:07;10.57;;;7.90;;
5876;SDS011;2964;42.144;24.730;2023-10-31T14:16:37;11.67;;;7.80;;
5876;SDS011;2964;42.144;24.730;2023-10-31T14:19:04;12.57;;;8.13;;
5876;SDS011;2964;42.144;24.730;2023-10-31T14:21:32;9.00;;;7.60;;
5876;SDS011;2964;42.144;24.730;2023-10-31T14:23:59;8.87;;;7.30;;
5876;SDS011;2964;42.144;24.730;2023-10-31T14:26:26;10.10;;;7.60;;
5876;SDS011;2964;42.144;24.730;2023-10-31T14:28:54;11.80;;;8.47;;
5876;SDS011;2964;42.144;24.730;2023-10-31T14:31:20;11.67;;;8.77;;
5876;SDS011;2964;42.144;24.730;2023-10-31T14:33:49;10.37;;;7.47;;
5876;SDS011;2964;42.144;24.730;2023-10-31T14:36:15;8.67;;;7.73;;
5876;SDS011;2964;42.144;24.730;2023-10-31T14:38:42;11.63;;;7.87;;
5876;SDS011;2964;42.144;24.730;2023-10-31T14:41:09;10.83;;;8.13;;
5876;SDS011;2964;42.144;24.730;2023-10-31T14:43:35;15.47;;;8.73;;
5876;SDS011;2964;42.144;24.730;2023-10-31T14:46:03;19.10;;;8.87;;